sensor_id;sensor_type;location;lat;lon;timestamp;P1;durP1;ratioP1;P2;durP2;ratioP2
54177;SDS011;40085;53.004;6.770;2022-11-20T00:00:49;10.30;;;4.93;;
54177;SDS011;40085;53.004;6.770;2022-11-20T00:03:15;10.10;;;4.78;;
54177;SDS011;40085;53.004;6.770;2022-11-20T00:05:42;12.18;;;4.88;;
54177;SDS011;40085;53.004;6.770;2022-11-20T00:08:08;10.65;;;4.57;;
54177;SDS011;40085;53.004;6.770;2022-11-20T00:10:38;8.98;;;4.18;;
54177;SDS011;40085;53.004;6.770;2022-11-20T00:13:04;9.10;;;4.32;;
54177;SDS011;40085;53.004;6.770;2022-11-20T00:15:30;10.35;;;4.60;;
54177;SDS011;40085;53.004;6.770;2022-11-20T00:17:56;9.25;;;5.03;;
54177;SDS011;40085;53.004;6.770;2022-11-20T00:20:22;9.00;;;4.10;;
54177;SDS011;40085;53.004;6.770;2022-11-20T00:22:49;8.15;;;4.50;;
54177;SDS011;40085;53.004;6.770;2022-11-20T00:25:17;6.85;;;3.50;;
54177;SDS011;40085;53.004;6.770;2022-11-20T00:27:43;9.57;;;4.60;;
54177;SDS011;40085;53.004;6.770;2022-11-20T00:30:13;8.10;;;3.70;;
54177;SDS011;40085;53.004;6.770;2022-11-20T00:32:39;8.27;;;4.03;;
54177;SDS011;40085;53.004;6.770;2022-11-20T00:35:05;8.45;;;4.57;;
54177;SDS011;40085;53.004;6.770;2022-11-20T00:37:31;9.75;;;4.65;;
54177;SDS011;40085;53.004;6.770;2022-11-20T00:39:57;6.82;;;4.38;;
54177;SDS011;40085;53.004;6.770;2022-11-20T00:42:23;7.78;;;3.72;;
54177;SDS011;40085;53.004;6.770;2022-11-20T00:44:49;9.57;;;4.65;;
54177;SDS011;40085;53.004;6.770;2022-11-20T00:47:15;6.15;;;3.72;;
54177;SDS011;40085;53.004;6.770;2022-11-20T00:49:41;6.35;;;4.10;;
54177;SDS011;40085;53.004;6.770;2022-11-20T00:52:08;8.02;;;4.65;;
54177;SDS011;40085;53.004;6.770;2022-11-20T00:54:34;9.75;;;4.20;;
54177;SDS011;40085;53.004;6.770;2022-11-20T00:57:00;9.50;;;4.85;;
54177;SDS011;40085;53.004;6.770;2022-11-20T00:59:26;7.55;;;4.82;;
54177;SDS011;40085;53.004;6.770;2022-11-20T01:01:52;6.70;;;3.80;;
54177;SDS011;40085;53.004;6.770;2022-11-20T01:04:19;5.25;;;3.70;;
54177;SDS011;40085;53.004;6.770;2022-11-20T01:06:45;10.38;;;4.80;;
54177;SDS011;40085;53.004;6.770;2022-11-20T01:09:12;7.65;;;4.32;;
54177;SDS011;40085;53.004;6.770;2022-11-20T01:11:39;8.48;;;4.65;;
54177;SDS011;40085;53.004;6.770;2022-11-20T01:14:08;9.02;;;3.97;;
54177;SDS011;40085;53.004;6.770;2022-11-20T01:16:36;11.95;;;5.03;;
54177;SDS011;40085;53.004;6.770;2022-11-20T01:19:03;9.40;;;4.05;;
54177;SDS011;40085;53.004;6.770;2022-11-20T01:21:31;10.10;;;4.55;;
54177;SDS011;40085;53.004;6.770;2022-11-20T01:23:58;7.82;;;3.45;;
54177;SDS011;40085;53.004;6.770;2022-11-20T01:26:28;9.05;;;4.50;;
54177;SDS011;40085;53.004;6.770;2022-11-20T01:28:55;6.22;;;3.67;;
54177;SDS011;40085;53.004;6.770;2022-11-20T01:31:23;8.35;;;4.65;;
54177;SDS011;40085;53.004;6.770;2022-11-20T01:33:50;8.70;;;4.30;;
54177;SDS011;40085;53.004;6.770;2022-11-20T01:36:17;11.50;;;5.05;;
54177;SDS011;40085;53.004;6.770;2022-11-20T01:38:43;6.20;;;3.92;;
54177;SDS011;40085;53.004;6.770;2022-11-20T01:41:13;6.97;;;4.00;;
54177;SDS011;40085;53.004;6.770;2022-11-20T01:43:58;7.13;;;4.30;;
54177;SDS011;40085;53.004;6.770;2022-11-20T01:46:24;10.32;;;4.30;;
54177;SDS011;40085;53.004;6.770;2022-11-20T01:49:01;9.73;;;3.75;;
54177;SDS011;40085;53.004;6.770;2022-11-20T01:54:02;8.50;;;4.35;;
54177;SDS011;40085;53.004;6.770;2022-11-20T01:58:56;7.70;;;4.03;;
54177;SDS011;40085;53.004;6.770;2022-11-20T02:01:23;7.18;;;4.47;;
54177;SDS011;40085;53.004;6.770;2022-11-20T02:03:51;6.35;;;4.18;;
54177;SDS011;40085;53.004;6.770;2022-11-20T02:06:24;8.90;;;5.25;;
54177;SDS011;40085;53.004;6.770;2022-11-20T02:08:51;8.45;;;4.13;;
54177;SDS011;40085;53.004;6.770;2022-11-20T02:11:18;8.75;;;4.43;;
54177;SDS011;40085;53.004;6.770;2022-11-20T02:13:44;6.38;;;4.07;;
54177;SDS011;40085;53.004;6.770;2022-11-20T02:18:49;7.80;;;4.05;;
54177;SDS011;40085;53.004;6.770;2022-11-20T02:21:21;11.38;;;5.07;;
54177;SDS011;40085;53.004;6.770;2022-11-20T02:26:18;6.88;;;4.72;;
54177;SDS011;40085;53.004;6.770;2022-11-20T02:28:45;6.72;;;4.55;;
54177;SDS011;40085;53.004;6.770;2022-11-20T02:31:11;10.05;;;5.03;;
54177;SDS011;40085;53.004;6.770;2022-11-20T02:33:37;9.45;;;5.15;;
54177;SDS011;40085;53.004;6.770;2022-11-20T02:36:04;11.13;;;6.03;;
54177;SDS011;40085;53.004;6.770;2022-11-20T02:38:30;9.60;;;5.28;;
54177;SDS011;40085;53.004;6.770;2022-11-20T02:40:56;9.85;;;5.47;;
54177;SDS011;40085;53.004;6.770;2022-11-20T02:43:22;7.35;;;4.88;;
54177;SDS011;40085;53.004;6.770;2022-11-20T02:45:48;13.68;;;5.55;;
54177;SDS011;40085;53.004;6.770;2022-11-20T02:48:15;13.07;;;5.65;;
54177;SDS011;40085;53.004;6.770;2022-11-20T02:50:43;11.73;;;5.47;;
54177;SDS011;40085;53.004;6.770;2022-11-20T02:53:09;9.15;;;4.95;;
54177;SDS011;40085;53.004;6.770;2022-11-20T02:55:35;11.10;;;5.63;;
54177;SDS011;40085;53.004;6.770;2022-11-20T02:58:01;8.75;;;4.55;;
54177;SDS011;40085;53.004;6.770;2022-11-20T03:00:28;10.68;;;4.60;;
54177;SDS011;40085;53.004;6.770;2022-11-20T03:02:54;20.13;;;5.90;;
54177;SDS011;40085;53.004;6.770;2022-11-20T03:05:20;9.52;;;5.43;;
54177;SDS011;40085;53.004;6.770;2022-11-20T03:07:46;7.93;;;4.18;;
54177;SDS011;40085;53.004;6.770;2022-11-20T03:10:12;10.65;;;4.70;;
54177;SDS011;40085;53.004;6.770;2022-11-20T03:12:38;10.70;;;5.40;;
54177;SDS011;40085;53.004;6.770;2022-11-20T03:15:04;9.25;;;4.90;;
54177;SDS011;40085;53.004;6.770;2022-11-20T03:17:31;11.75;;;5.35;;
54177;SDS011;40085;53.004;6.770;2022-11-20T03:19:57;8.30;;;4.32;;
54177;SDS011;40085;53.004;6.770;2022-11-20T03:22:23;10.93;;;5.85;;
54177;SDS011;40085;53.004;6.770;2022-11-20T03:24:51;8.23;;;4.82;;
54177;SDS011;40085;53.004;6.770;2022-11-20T03:27:18;12.32;;;5.18;;
54177;SDS011;40085;53.004;6.770;2022-11-20T03:29:44;9.23;;;4.88;;
54177;SDS011;40085;53.004;6.770;2022-11-20T03:32:12;9.85;;;4.93;;
54177;SDS011;40085;53.004;6.770;2022-11-20T03:34:38;8.57;;;4.63;;
54177;SDS011;40085;53.004;6.770;2022-11-20T03:37:04;12.40;;;5.15;;
54177;SDS011;40085;53.004;6.770;2022-11-20T03:39:30;12.90;;;5.50;;
54177;SDS011;40085;53.004;6.770;2022-11-20T03:41:55;6.88;;;4.63;;
54177;SDS011;40085;53.004;6.770;2022-11-20T03:44:21;13.70;;;5.93;;
54177;SDS011;40085;53.004;6.770;2022-11-20T03:46:47;8.65;;;5.50;;
54177;SDS011;40085;53.004;6.770;2022-11-20T03:49:13;13.23;;;5.45;;
54177;SDS011;40085;53.004;6.770;2022-11-20T03:51:38;13.50;;;4.97;;
54177;SDS011;40085;53.004;6.770;2022-11-20T03:54:05;11.70;;;5.50;;
54177;SDS011;40085;53.004;6.770;2022-11-20T03:56:34;11.00;;;4.78;;
54177;SDS011;40085;53.004;6.770;2022-11-20T03:59:04;11.88;;;5.07;;
54177;SDS011;40085;53.004;6.770;2022-11-20T04:01:32;9.10;;;5.57;;
54177;SDS011;40085;53.004;6.770;2022-11-20T04:04:02;11.73;;;5.53;;
54177;SDS011;40085;53.004;6.770;2022-11-20T04:06:30;8.00;;;4.38;;
54177;SDS011;40085;53.004;6.770;2022-11-20T04:08:59;8.85;;;4.60;;
54177;SDS011;40085;53.004;6.770;2022-11-20T04:11:30;8.48;;;4.70;;
54177;SDS011;40085;53.004;6.770;2022-11-20T04:13:58;7.72;;;4.53;;
54177;SDS011;40085;53.004;6.770;2022-11-20T04:16:25;9.70;;;5.13;;
54177;SDS011;40085;53.004;6.770;2022-11-20T04:18:55;7.75;;;4.80;;
54177;SDS011;40085;53.004;6.770;2022-11-20T04:21:22;9.13;;;4.35;;
54177;SDS011;40085;53.004;6.770;2022-11-20T04:23:49;9.10;;;4.80;;
54177;SDS011;40085;53.004;6.770;2022-11-20T04:26:18;6.85;;;4.40;;
54177;SDS011;40085;53.004;6.770;2022-11-20T04:28:44;9.02;;;4.32;;
54177;SDS011;40085;53.004;6.770;2022-11-20T04:31:11;8.38;;;4.85;;
54177;SDS011;40085;53.004;6.770;2022-11-20T04:33:45;9.93;;;4.55;;
54177;SDS011;40085;53.004;6.770;2022-11-20T04:36:12;8.25;;;4.82;;
54177;SDS011;40085;53.004;6.770;2022-11-20T04:38:42;11.97;;;4.97;;
54177;SDS011;40085;53.004;6.770;2022-11-20T04:41:09;8.77;;;3.90;;
54177;SDS011;40085;53.004;6.770;2022-11-20T04:43:45;6.50;;;4.15;;
54177;SDS011;40085;53.004;6.770;2022-11-20T04:46:13;9.38;;;5.05;;
54177;SDS011;40085;53.004;6.770;2022-11-20T04:48:40;10.30;;;4.70;;
54177;SDS011;40085;53.004;6.770;2022-11-20T04:51:06;6.35;;;3.47;;
54177;SDS011;40085;53.004;6.770;2022-11-20T04:53:32;11.25;;;4.70;;
54177;SDS011;40085;53.004;6.770;2022-11-20T04:56:03;6.72;;;4.15;;
54177;SDS011;40085;53.004;6.770;2022-11-20T04:58:34;8.60;;;4.32;;
54177;SDS011;40085;53.004;6.770;2022-11-20T05:01:03;5.85;;;3.78;;
54177;SDS011;40085;53.004;6.770;2022-11-20T05:03:30;11.02;;;4.38;;
54177;SDS011;40085;53.004;6.770;2022-11-20T05:05:59;7.00;;;3.33;;
54177;SDS011;40085;53.004;6.770;2022-11-20T05:08:26;8.73;;;4.28;;
54177;SDS011;40085;53.004;6.770;2022-11-20T05:10:52;5.78;;;3.92;;
54177;SDS011;40085;53.004;6.770;2022-11-20T05:13:18;6.93;;;4.18;;
54177;SDS011;40085;53.004;6.770;2022-11-20T05:15:43;10.18;;;4.60;;
54177;SDS011;40085;53.004;6.770;2022-11-20T05:18:09;7.40;;;3.63;;
54177;SDS011;40085;53.004;6.770;2022-11-20T05:20:35;7.95;;;3.50;;
54177;SDS011;40085;53.004;6.770;2022-11-20T05:23:01;9.40;;;3.72;;
54177;SDS011;40085;53.004;6.770;2022-11-20T05:25:27;8.02;;;4.18;;
54177;SDS011;40085;53.004;6.770;2022-11-20T05:27:53;8.65;;;4.40;;
54177;SDS011;40085;53.004;6.770;2022-11-20T05:30:19;8.95;;;4.53;;
54177;SDS011;40085;53.004;6.770;2022-11-20T05:32:44;7.90;;;3.75;;
54177;SDS011;40085;53.004;6.770;2022-11-20T05:35:10;4.65;;;3.15;;
54177;SDS011;40085;53.004;6.770;2022-11-20T05:37:38;14.18;;;3.80;;
54177;SDS011;40085;53.004;6.770;2022-11-20T05:40:04;5.50;;;3.22;;
54177;SDS011;40085;53.004;6.770;2022-11-20T05:42:31;8.50;;;4.13;;
54177;SDS011;40085;53.004;6.770;2022-11-20T05:45:00;8.20;;;4.10;;
54177;SDS011;40085;53.004;6.770;2022-11-20T05:47:28;7.88;;;4.45;;
54177;SDS011;40085;53.004;6.770;2022-11-20T05:49:57;7.57;;;4.18;;
54177;SDS011;40085;53.004;6.770;2022-11-20T05:52:23;7.03;;;3.85;;
54177;SDS011;40085;53.004;6.770;2022-11-20T05:54:49;6.95;;;4.07;;
54177;SDS011;40085;53.004;6.770;2022-11-20T05:57:15;9.50;;;4.25;;
54177;SDS011;40085;53.004;6.770;2022-11-20T05:59:41;10.93;;;4.60;;
54177;SDS011;40085;53.004;6.770;2022-11-20T06:02:07;9.50;;;4.57;;
54177;SDS011;40085;53.004;6.770;2022-11-20T06:04:36;8.82;;;3.95;;
54177;SDS011;40085;53.004;6.770;2022-11-20T06:07:02;8.07;;;4.40;;
54177;SDS011;40085;53.004;6.770;2022-11-20T06:09:27;7.88;;;4.28;;
54177;SDS011;40085;53.004;6.770;2022-11-20T06:11:54;7.05;;;4.00;;
54177;SDS011;40085;53.004;6.770;2022-11-20T06:14:19;6.25;;;4.03;;
54177;SDS011;40085;53.004;6.770;2022-11-20T06:16:45;6.28;;;3.88;;
54177;SDS011;40085;53.004;6.770;2022-11-20T06:19:11;4.85;;;2.88;;
54177;SDS011;40085;53.004;6.770;2022-11-20T06:21:37;7.35;;;3.83;;
54177;SDS011;40085;53.004;6.770;2022-11-20T06:24:02;7.15;;;4.07;;
54177;SDS011;40085;53.004;6.770;2022-11-20T06:26:29;6.07;;;3.70;;
54177;SDS011;40085;53.004;6.770;2022-11-20T06:28:55;8.27;;;4.20;;
54177;SDS011;40085;53.004;6.770;2022-11-20T06:31:24;8.43;;;4.20;;
54177;SDS011;40085;53.004;6.770;2022-11-20T06:33:51;10.88;;;4.10;;
54177;SDS011;40085;53.004;6.770;2022-11-20T06:36:18;11.23;;;4.47;;
54177;SDS011;40085;53.004;6.770;2022-11-20T06:38:45;6.45;;;3.92;;
54177;SDS011;40085;53.004;6.770;2022-11-20T06:41:15;6.22;;;4.10;;
54177;SDS011;40085;53.004;6.770;2022-11-20T06:43:43;6.50;;;3.67;;
54177;SDS011;40085;53.004;6.770;2022-11-20T06:46:10;8.57;;;3.33;;
54177;SDS011;40085;53.004;6.770;2022-11-20T06:48:37;6.55;;;3.75;;
54177;SDS011;40085;53.004;6.770;2022-11-20T06:51:04;10.52;;;4.07;;
54177;SDS011;40085;53.004;6.770;2022-11-20T06:53:32;9.32;;;4.20;;
54177;SDS011;40085;53.004;6.770;2022-11-20T06:55:58;6.90;;;3.90;;
54177;SDS011;40085;53.004;6.770;2022-11-20T06:58:26;8.63;;;4.00;;
54177;SDS011;40085;53.004;6.770;2022-11-20T07:00:53;6.90;;;3.47;;
54177;SDS011;40085;53.004;6.770;2022-11-20T07:03:19;8.05;;;4.28;;
54177;SDS011;40085;53.004;6.770;2022-11-20T07:05:45;6.40;;;3.60;;
54177;SDS011;40085;53.004;6.770;2022-11-20T07:08:11;8.48;;;3.65;;
54177;SDS011;40085;53.004;6.770;2022-11-20T07:10:37;6.55;;;3.63;;
54177;SDS011;40085;53.004;6.770;2022-11-20T07:13:03;7.80;;;3.08;;
54177;SDS011;40085;53.004;6.770;2022-11-20T07:15:29;9.25;;;4.07;;
54177;SDS011;40085;53.004;6.770;2022-11-20T07:17:55;16.50;;;4.65;;
54177;SDS011;40085;53.004;6.770;2022-11-20T07:20:24;10.38;;;3.97;;
54177;SDS011;40085;53.004;6.770;2022-11-20T07:22:56;7.13;;;3.53;;
54177;SDS011;40085;53.004;6.770;2022-11-20T07:25:23;6.88;;;3.40;;
54177;SDS011;40085;53.004;6.770;2022-11-20T07:27:56;6.85;;;3.92;;
54177;SDS011;40085;53.004;6.770;2022-11-20T07:30:23;8.02;;;3.90;;
54177;SDS011;40085;53.004;6.770;2022-11-20T07:32:52;6.38;;;3.70;;
54177;SDS011;40085;53.004;6.770;2022-11-20T07:35:19;8.30;;;3.70;;
54177;SDS011;40085;53.004;6.770;2022-11-20T07:37:45;5.78;;;3.20;;
54177;SDS011;40085;53.004;6.770;2022-11-20T07:40:15;8.45;;;3.38;;
54177;SDS011;40085;53.004;6.770;2022-11-20T07:42:48;6.93;;;3.45;;
54177;SDS011;40085;53.004;6.770;2022-11-20T07:45:15;5.68;;;3.58;;
54177;SDS011;40085;53.004;6.770;2022-11-20T07:47:41;7.90;;;4.43;;
54177;SDS011;40085;53.004;6.770;2022-11-20T07:50:07;5.53;;;3.05;;
54177;SDS011;40085;53.004;6.770;2022-11-20T07:52:33;6.20;;;3.58;;
54177;SDS011;40085;53.004;6.770;2022-11-20T07:54:58;6.72;;;3.50;;
54177;SDS011;40085;53.004;6.770;2022-11-20T07:57:24;6.47;;;2.85;;
54177;SDS011;40085;53.004;6.770;2022-11-20T07:59:50;7.68;;;3.85;;
54177;SDS011;40085;53.004;6.770;2022-11-20T08:02:16;5.95;;;3.30;;
54177;SDS011;40085;53.004;6.770;2022-11-20T08:04:41;4.55;;;3.00;;
54177;SDS011;40085;53.004;6.770;2022-11-20T08:07:07;6.30;;;3.83;;
54177;SDS011;40085;53.004;6.770;2022-11-20T08:09:33;6.72;;;3.47;;
54177;SDS011;40085;53.004;6.770;2022-11-20T08:11:59;7.00;;;3.65;;
54177;SDS011;40085;53.004;6.770;2022-11-20T08:14:43;10.73;;;3.65;;
54177;SDS011;40085;53.004;6.770;2022-11-20T08:17:08;8.77;;;3.55;;
54177;SDS011;40085;53.004;6.770;2022-11-20T08:19:35;6.28;;;3.63;;
54177;SDS011;40085;53.004;6.770;2022-11-20T08:22:00;4.50;;;3.03;;
54177;SDS011;40085;53.004;6.770;2022-11-20T08:24:26;7.97;;;4.05;;
54177;SDS011;40085;53.004;6.770;2022-11-20T08:26:52;5.97;;;3.33;;
54177;SDS011;40085;53.004;6.770;2022-11-20T08:29:18;8.00;;;3.65;;
54177;SDS011;40085;53.004;6.770;2022-11-20T08:31:44;7.63;;;3.85;;
54177;SDS011;40085;53.004;6.770;2022-11-20T08:34:09;7.00;;;3.80;;
54177;SDS011;40085;53.004;6.770;2022-11-20T08:36:35;5.68;;;2.97;;
54177;SDS011;40085;53.004;6.770;2022-11-20T08:39:02;7.00;;;3.95;;
54177;SDS011;40085;53.004;6.770;2022-11-20T08:41:28;6.40;;;3.35;;
54177;SDS011;40085;53.004;6.770;2022-11-20T08:44:04;6.20;;;3.20;;
54177;SDS011;40085;53.004;6.770;2022-11-20T08:46:32;7.18;;;3.55;;
54177;SDS011;40085;53.004;6.770;2022-11-20T08:49:01;5.30;;;3.38;;
54177;SDS011;40085;53.004;6.770;2022-11-20T08:51:28;4.65;;;2.78;;
54177;SDS011;40085;53.004;6.770;2022-11-20T08:53:53;7.10;;;3.70;;
54177;SDS011;40085;53.004;6.770;2022-11-20T08:56:19;6.88;;;3.63;;
54177;SDS011;40085;53.004;6.770;2022-11-20T08:58:45;6.45;;;3.17;;
54177;SDS011;40085;53.004;6.770;2022-11-20T09:01:10;6.53;;;3.75;;
54177;SDS011;40085;53.004;6.770;2022-11-20T09:03:36;5.72;;;3.75;;
54177;SDS011;40085;53.004;6.770;2022-11-20T09:06:03;5.93;;;3.55;;
54177;SDS011;40085;53.004;6.770;2022-11-20T09:08:31;6.97;;;3.58;;
54177;SDS011;40085;53.004;6.770;2022-11-20T09:10:57;8.20;;;4.30;;
54177;SDS011;40085;53.004;6.770;2022-11-20T09:13:23;8.80;;;3.35;;
54177;SDS011;40085;53.004;6.770;2022-11-20T09:15:54;6.25;;;2.97;;
54177;SDS011;40085;53.004;6.770;2022-11-20T09:18:21;10.75;;;3.53;;
54177;SDS011;40085;53.004;6.770;2022-11-20T09:20:47;7.40;;;3.65;;
54177;SDS011;40085;53.004;6.770;2022-11-20T09:23:14;6.70;;;4.10;;
54177;SDS011;40085;53.004;6.770;2022-11-20T09:25:40;7.13;;;2.97;;
54177;SDS011;40085;53.004;6.770;2022-11-20T09:28:06;9.75;;;3.33;;
54177;SDS011;40085;53.004;6.770;2022-11-20T09:30:31;5.45;;;3.28;;
54177;SDS011;40085;53.004;6.770;2022-11-20T09:32:58;9.55;;;3.38;;
54177;SDS011;40085;53.004;6.770;2022-11-20T09:35:23;7.93;;;3.35;;
54177;SDS011;40085;53.004;6.770;2022-11-20T09:37:49;7.20;;;3.72;;
54177;SDS011;40085;53.004;6.770;2022-11-20T09:40:28;8.27;;;4.55;;
54177;SDS011;40085;53.004;6.770;2022-11-20T09:54:18;5.18;;;3.10;;
54177;SDS011;40085;53.004;6.770;2022-11-20T09:56:50;6.10;;;3.28;;
54177;SDS011;40085;53.004;6.770;2022-11-20T10:01:57;7.13;;;3.72;;
54177;SDS011;40085;53.004;6.770;2022-11-20T10:04:25;8.25;;;3.42;;
54177;SDS011;40085;53.004;6.770;2022-11-20T10:09:34;6.50;;;3.30;;
54177;SDS011;40085;53.004;6.770;2022-11-20T10:14:37;5.65;;;3.30;;
54177;SDS011;40085;53.004;6.770;2022-11-20T10:20:20;7.57;;;3.60;;
54177;SDS011;40085;53.004;6.770;2022-11-20T10:22:54;7.63;;;3.40;;
54177;SDS011;40085;53.004;6.770;2022-11-20T10:25:43;6.85;;;3.03;;
54177;SDS011;40085;53.004;6.770;2022-11-20T10:31:08;4.20;;;2.75;;
54177;SDS011;40085;53.004;6.770;2022-11-20T10:33:40;6.30;;;3.38;;
54177;SDS011;40085;53.004;6.770;2022-11-20T10:36:17;4.35;;;2.90;;
54177;SDS011;40085;53.004;6.770;2022-11-20T10:38:54;5.88;;;3.00;;
54177;SDS011;40085;53.004;6.770;2022-11-20T10:41:32;6.32;;;2.95;;
54177;SDS011;40085;53.004;6.770;2022-11-20T10:47:12;5.25;;;2.88;;
54177;SDS011;40085;53.004;6.770;2022-11-20T10:49:46;6.47;;;3.25;;
54177;SDS011;40085;53.004;6.770;2022-11-20T10:52:21;7.22;;;3.00;;
54177;SDS011;40085;53.004;6.770;2022-11-20T10:54:58;4.40;;;2.58;;
54177;SDS011;40085;53.004;6.770;2022-11-20T10:57:41;6.28;;;3.03;;
54177;SDS011;40085;53.004;6.770;2022-11-20T11:00:18;8.10;;;3.42;;
54177;SDS011;40085;53.004;6.770;2022-11-20T11:02:46;5.65;;;2.63;;
54177;SDS011;40085;53.004;6.770;2022-11-20T11:05:21;6.60;;;3.15;;
54177;SDS011;40085;53.004;6.770;2022-11-20T11:08:12;4.35;;;2.47;;
54177;SDS011;40085;53.004;6.770;2022-11-20T11:13:24;5.82;;;2.40;;
54177;SDS011;40085;53.004;6.770;2022-11-20T11:15:52;3.72;;;2.60;;
54177;SDS011;40085;53.004;6.770;2022-11-20T11:18:28;9.40;;;3.40;;
54177;SDS011;40085;53.004;6.770;2022-11-20T11:20:57;5.53;;;2.30;;
54177;SDS011;40085;53.004;6.770;2022-11-20T11:23:38;5.05;;;3.13;;
54177;SDS011;40085;53.004;6.770;2022-11-20T11:26:06;4.40;;;3.53;;
54177;SDS011;40085;53.004;6.770;2022-11-20T11:28:52;7.15;;;2.92;;
54177;SDS011;40085;53.004;6.770;2022-11-20T11:31:29;5.43;;;2.80;;
54177;SDS011;40085;53.004;6.770;2022-11-20T11:34:16;4.88;;;2.97;;
54177;SDS011;40085;53.004;6.770;2022-11-20T11:36:42;5.30;;;2.97;;
54177;SDS011;40085;53.004;6.770;2022-11-20T11:39:21;5.93;;;2.67;;
54177;SDS011;40085;53.004;6.770;2022-11-20T11:41:47;4.90;;;2.47;;
54177;SDS011;40085;53.004;6.770;2022-11-20T11:44:17;5.95;;;2.70;;
54177;SDS011;40085;53.004;6.770;2022-11-20T11:47:05;5.60;;;2.28;;
54177;SDS011;40085;53.004;6.770;2022-11-20T11:49:37;5.32;;;2.60;;
54177;SDS011;40085;53.004;6.770;2022-11-20T11:52:16;5.85;;;2.97;;
54177;SDS011;40085;53.004;6.770;2022-11-20T11:54:56;5.53;;;3.15;;
54177;SDS011;40085;53.004;6.770;2022-11-20T11:57:29;6.85;;;3.00;;
54177;SDS011;40085;53.004;6.770;2022-11-20T12:00:20;6.88;;;2.85;;
54177;SDS011;40085;53.004;6.770;2022-11-20T12:05:42;5.10;;;2.17;;
54177;SDS011;40085;53.004;6.770;2022-11-20T12:08:13;4.03;;;2.60;;
54177;SDS011;40085;53.004;6.770;2022-11-20T12:11:06;5.13;;;2.35;;
54177;SDS011;40085;53.004;6.770;2022-11-20T12:13:44;4.15;;;2.58;;
54177;SDS011;40085;53.004;6.770;2022-11-20T12:16:23;7.60;;;2.60;;
54177;SDS011;40085;53.004;6.770;2022-11-20T12:18:50;3.60;;;2.65;;
54177;SDS011;40085;53.004;6.770;2022-11-20T12:24:15;4.20;;;2.53;;
54177;SDS011;40085;53.004;6.770;2022-11-20T12:27:05;5.00;;;2.90;;
54177;SDS011;40085;53.004;6.770;2022-11-20T12:29:48;5.97;;;2.60;;
54177;SDS011;40085;53.004;6.770;2022-11-20T12:32:37;6.43;;;2.90;;
54177;SDS011;40085;53.004;6.770;2022-11-20T12:41:24;6.70;;;3.15;;
54177;SDS011;40085;53.004;6.770;2022-11-20T12:47:36;6.03;;;2.97;;
54177;SDS011;40085;53.004;6.770;2022-11-20T12:52:56;4.60;;;2.75;;
54177;SDS011;40085;53.004;6.770;2022-11-20T12:58:27;5.72;;;3.10;;
54177;SDS011;40085;53.004;6.770;2022-11-20T13:01:22;5.80;;;2.92;;
54177;SDS011;40085;53.004;6.770;2022-11-20T13:04:36;7.32;;;3.42;;
54177;SDS011;40085;53.004;6.770;2022-11-20T13:07:10;6.63;;;2.90;;
54177;SDS011;40085;53.004;6.770;2022-11-20T13:09:40;5.70;;;2.80;;
54177;SDS011;40085;53.004;6.770;2022-11-20T13:15:08;4.90;;;2.60;;
54177;SDS011;40085;53.004;6.770;2022-11-20T13:17:54;7.25;;;3.55;;
54177;SDS011;40085;53.004;6.770;2022-11-20T13:20:23;6.88;;;3.55;;
54177;SDS011;40085;53.004;6.770;2022-11-20T13:22:50;7.18;;;3.42;;
54177;SDS011;40085;53.004;6.770;2022-11-20T13:25:27;5.35;;;2.92;;
54177;SDS011;40085;53.004;6.770;2022-11-20T13:28:59;4.60;;;2.97;;
54177;SDS011;40085;53.004;6.770;2022-11-20T13:30:55;5.65;;;3.13;;
54177;SDS011;40085;53.004;6.770;2022-11-20T13:33:34;8.77;;;3.65;;
54177;SDS011;40085;53.004;6.770;2022-11-20T13:36:06;7.38;;;3.97;;
54177;SDS011;40085;53.004;6.770;2022-11-20T13:38:46;7.00;;;3.35;;
54177;SDS011;40085;53.004;6.770;2022-11-20T13:46:44;7.57;;;3.42;;
54177;SDS011;40085;53.004;6.770;2022-11-20T13:49:30;4.32;;;3.03;;
54177;SDS011;40085;53.004;6.770;2022-11-20T14:00:27;8.60;;;3.08;;
54177;SDS011;40085;53.004;6.770;2022-11-20T14:03:01;5.40;;;3.33;;
54177;SDS011;40085;53.004;6.770;2022-11-20T14:05:30;7.10;;;3.78;;
54177;SDS011;40085;53.004;6.770;2022-11-20T14:08:02;6.82;;;3.45;;
54177;SDS011;40085;53.004;6.770;2022-11-20T14:10:30;7.72;;;3.45;;
54177;SDS011;40085;53.004;6.770;2022-11-20T14:12:56;6.55;;;3.38;;
54177;SDS011;40085;53.004;6.770;2022-11-20T14:15:32;8.02;;;3.70;;
54177;SDS011;40085;53.004;6.770;2022-11-20T14:17:59;7.03;;;2.78;;
54177;SDS011;40085;53.004;6.770;2022-11-20T14:20:36;4.75;;;3.15;;
54177;SDS011;40085;53.004;6.770;2022-11-20T14:23:03;6.65;;;3.83;;
54177;SDS011;40085;53.004;6.770;2022-11-20T14:25:30;6.15;;;3.40;;
54177;SDS011;40085;53.004;6.770;2022-11-20T14:30:29;5.47;;;3.00;;
54177;SDS011;40085;53.004;6.770;2022-11-20T14:33:04;8.85;;;4.22;;
54177;SDS011;40085;53.004;6.770;2022-11-20T14:35:33;5.72;;;3.15;;
54177;SDS011;40085;53.004;6.770;2022-11-20T14:38:02;7.43;;;4.25;;
54177;SDS011;40085;53.004;6.770;2022-11-20T14:40:29;7.40;;;4.30;;
54177;SDS011;40085;53.004;6.770;2022-11-20T14:42:56;7.07;;;3.70;;
54177;SDS011;40085;53.004;6.770;2022-11-20T14:45:22;6.15;;;3.50;;
54177;SDS011;40085;53.004;6.770;2022-11-20T14:47:50;5.22;;;3.10;;
54177;SDS011;40085;53.004;6.770;2022-11-20T14:50:29;7.57;;;3.65;;
54177;SDS011;40085;53.004;6.770;2022-11-20T14:52:56;4.75;;;2.70;;
54177;SDS011;40085;53.004;6.770;2022-11-20T14:55:26;6.95;;;3.63;;
54177;SDS011;40085;53.004;6.770;2022-11-20T14:58:01;8.77;;;4.03;;
54177;SDS011;40085;53.004;6.770;2022-11-20T15:00:31;8.77;;;4.35;;
54177;SDS011;40085;53.004;6.770;2022-11-20T15:02:58;8.38;;;4.40;;
54177;SDS011;40085;53.004;6.770;2022-11-20T15:05:46;9.85;;;4.13;;
54177;SDS011;40085;53.004;6.770;2022-11-20T15:08:14;7.68;;;4.32;;
54177;SDS011;40085;53.004;6.770;2022-11-20T15:10:45;6.47;;;3.97;;
54177;SDS011;40085;53.004;6.770;2022-11-20T15:13:12;6.35;;;3.95;;
54177;SDS011;40085;53.004;6.770;2022-11-20T15:15:42;8.10;;;4.20;;
54177;SDS011;40085;53.004;6.770;2022-11-20T15:21:10;10.48;;;4.30;;
54177;SDS011;40085;53.004;6.770;2022-11-20T15:23:38;7.25;;;4.13;;
54177;SDS011;40085;53.004;6.770;2022-11-20T15:26:04;9.18;;;5.10;;
54177;SDS011;40085;53.004;6.770;2022-11-20T15:28:32;11.15;;;4.72;;
54177;SDS011;40085;53.004;6.770;2022-11-20T15:31:00;7.75;;;4.90;;
54177;SDS011;40085;53.004;6.770;2022-11-20T15:33:28;14.02;;;5.90;;
54177;SDS011;40085;53.004;6.770;2022-11-20T15:35:54;6.65;;;4.18;;
54177;SDS011;40085;53.004;6.770;2022-11-20T15:38:19;7.10;;;4.88;;
54177;SDS011;40085;53.004;6.770;2022-11-20T15:40:45;11.70;;;5.70;;
54177;SDS011;40085;53.004;6.770;2022-11-20T15:43:11;12.20;;;5.65;;
54177;SDS011;40085;53.004;6.770;2022-11-20T15:45:42;9.05;;;4.60;;
54177;SDS011;40085;53.004;6.770;2022-11-20T15:48:16;6.32;;;4.15;;
54177;SDS011;40085;53.004;6.770;2022-11-20T15:50:54;10.30;;;4.82;;
54177;SDS011;40085;53.004;6.770;2022-11-20T15:53:39;11.45;;;5.97;;
54177;SDS011;40085;53.004;6.770;2022-11-20T15:58:58;6.38;;;4.22;;
54177;SDS011;40085;53.004;6.770;2022-11-20T16:01:24;6.85;;;4.32;;
54177;SDS011;40085;53.004;6.770;2022-11-20T16:03:50;10.63;;;4.95;;
54177;SDS011;40085;53.004;6.770;2022-11-20T16:06:16;9.48;;;5.63;;
54177;SDS011;40085;53.004;6.770;2022-11-20T16:08:41;6.35;;;3.92;;
54177;SDS011;40085;53.004;6.770;2022-11-20T16:11:10;9.48;;;5.10;;
54177;SDS011;40085;53.004;6.770;2022-11-20T16:13:39;6.55;;;4.85;;
54177;SDS011;40085;53.004;6.770;2022-11-20T16:16:37;9.95;;;4.47;;
54177;SDS011;40085;53.004;6.770;2022-11-20T16:19:04;8.27;;;4.10;;
54177;SDS011;40085;53.004;6.770;2022-11-20T16:21:30;9.25;;;5.10;;
54177;SDS011;40085;53.004;6.770;2022-11-20T16:23:59;13.30;;;6.03;;
54177;SDS011;40085;53.004;6.770;2022-11-20T16:26:30;8.02;;;5.38;;